sensor_id;sensor_type;location;lat;lon;timestamp;pressure;altitude;pressure_sealevel;temperature;humidity
51249;BME280;39642;47.556;18.728;2023-02-02T00:00:19;99328.47;;;21.72;30.96
51249;BME280;39642;47.556;18.728;2023-02-02T00:02:45;99324.84;;;21.73;31.30
51249;BME280;39642;47.556;18.728;2023-02-02T00:05:11;99329.22;;;21.74;31.29
51249;BME280;39642;47.556;18.728;2023-02-02T00:07:37;99331.75;;;21.75;31.56
51249;BME280;39642;47.556;18.728;2023-02-02T00:10:03;99317.66;;;21.75;31.47
51249;BME280;39642;47.556;18.728;2023-02-02T00:12:29;99314.06;;;21.76;30.99
51249;BME280;39642;47.556;18.728;2023-02-02T00:14:55;99322.00;;;21.76;31.04
51249;BME280;39642;47.556;18.728;2023-02-02T00:17:21;99320.28;;;21.75;31.26
51249;BME280;39642;47.556;18.728;2023-02-02T00:19:47;99332.69;;;21.74;30.91
51249;BME280;39642;47.556;18.728;2023-02-02T00:22:13;99340.75;;;21.73;31.25
51249;BME280;39642;47.556;18.728;2023-02-02T00:24:40;99349.56;;;21.73;31.41
51249;BME280;39642;47.556;18.728;2023-02-02T00:27:05;99354.00;;;21.73;31.19
51249;BME280;39642;47.556;18.728;2023-02-02T00:29:31;99336.41;;;21.72;31.28
51249;BME280;39642;47.556;18.728;2023-02-02T00:31:57;99325.81;;;21.72;31.13
51249;BME280;39642;47.556;18.728;2023-02-02T00:34:23;99309.19;;;21.70;31.57
51249;BME280;39642;47.556;18.728;2023-02-02T00:36:50;99317.13;;;21.70;31.11
51249;BME280;39642;47.556;18.728;2023-02-02T00:39:18;99320.63;;;21.70;31.04
51249;BME280;39642;47.556;18.728;2023-02-02T00:41:45;99341.06;;;21.68;31.13
51249;BME280;39642;47.556;18.728;2023-02-02T00:44:11;99351.69;;;21.68;31.37
51249;BME280;39642;47.556;18.728;2023-02-02T00:46:56;99339.31;;;21.69;30.83
51249;BME280;39642;47.556;18.728;2023-02-02T00:49:22;99349.91;;;21.69;30.67
51249;BME280;39642;47.556;18.728;2023-02-02T00:51:48;99359.53;;;21.70;30.88
51249;BME280;39642;47.556;18.728;2023-02-02T00:54:15;99361.34;;;21.69;31.10
51249;BME280;39642;47.556;18.728;2023-02-02T00:56:41;99374.50;;;21.71;31.31
51249;BME280;39642;47.556;18.728;2023-02-02T00:59:07;99382.31;;;21.72;30.68
51249;BME280;39642;47.556;18.728;2023-02-02T01:01:33;99378.81;;;21.72;30.65
51249;BME280;39642;47.556;18.728;2023-02-02T01:03:59;99385.81;;;21.73;30.77
51249;BME280;39642;47.556;18.728;2023-02-02T01:06:25;99385.81;;;21.73;30.76
51249;BME280;39642;47.556;18.728;2023-02-02T01:08:51;99379.66;;;21.72;30.70
51249;BME280;39642;47.556;18.728;2023-02-02T01:11:17;99366.41;;;21.72;30.87
51249;BME280;39642;47.556;18.728;2023-02-02T01:13:43;99379.78;;;21.71;31.04
51249;BME280;39642;47.556;18.728;2023-02-02T01:16:10;99366.53;;;21.71;30.71
51249;BME280;39642;47.556;18.728;2023-02-02T01:18:36;99372.69;;;21.71;30.69
51249;BME280;39642;47.556;18.728;2023-02-02T01:21:05;99387.84;;;21.69;30.43
51249;BME280;39642;47.556;18.728;2023-02-02T01:23:33;99391.31;;;21.70;30.96
51249;BME280;39642;47.556;18.728;2023-02-02T01:26:02;99383.37;;;21.70;30.77
51249;BME280;39642;47.556;18.728;2023-02-02T01:28:29;99390.59;;;21.68;30.83
51249;BME280;39642;47.556;18.728;2023-02-02T01:30:56;99395.88;;;21.68;30.77
51249;BME280;39642;47.556;18.728;2023-02-02T01:33:23;99402.16;;;21.67;30.70
51249;BME280;39642;47.556;18.728;2023-02-02T01:35:54;99384.44;;;21.67;30.57
51249;BME280;39642;47.556;18.728;2023-02-02T01:38:22;99375.66;;;21.67;30.35
51249;BME280;39642;47.556;18.728;2023-02-02T01:40:51;99352.75;;;21.66;30.72
51249;BME280;39642;47.556;18.728;2023-02-02T01:43:25;99345.87;;;21.63;30.55
51249;BME280;39642;47.556;18.728;2023-02-02T01:45:52;99352.00;;;21.63;30.62
51249;BME280;39642;47.556;18.728;2023-02-02T01:48:24;99353.81;;;21.63;30.83
51249;BME280;39642;47.556;18.728;2023-02-02T01:50:53;99355.63;;;21.62;30.49
51249;BME280;39642;47.556;18.728;2023-02-02T01:53:21;99345.97;;;21.61;30.60
51249;BME280;39642;47.556;18.728;2023-02-02T01:55:48;99328.28;;;21.62;30.59
51249;BME280;39642;47.556;18.728;2023-02-02T01:58:21;99319.47;;;21.61;30.44
51249;BME280;39642;47.556;18.728;2023-02-02T02:00:48;99325.72;;;21.60;30.56
51249;BME280;39642;47.556;18.728;2023-02-02T02:03:16;99326.56;;;21.61;30.62
51249;BME280;39642;47.556;18.728;2023-02-02T02:06:07;99321.19;;;21.62;30.31
51249;BME280;39642;47.556;18.728;2023-02-02T02:08:42;99308.78;;;21.63;30.25
51249;BME280;39642;47.556;18.728;2023-02-02T02:11:12;99299.00;;;21.63;30.65
51249;BME280;39642;47.556;18.728;2023-02-02T02:13:38;99286.50;;;21.66;30.19
51249;BME280;39642;47.556;18.728;2023-02-02T02:21:58;99298.91;;;21.65;30.62
51249;BME280;39642;47.556;18.728;2023-02-02T02:25:17;99313.88;;;21.66;30.24
51249;BME280;39642;47.556;18.728;2023-02-02T02:31:20;99314.72;;;21.67;30.03
51249;BME280;39642;47.556;18.728;2023-02-02T02:34:06;99325.19;;;21.68;30.16
51249;BME280;39642;47.556;18.728;2023-02-02T02:41:45;99307.50;;;21.69;30.40
51249;BME280;39642;47.556;18.728;2023-02-02T02:44:15;99318.94;;;21.69;30.88
51249;BME280;39642;47.556;18.728;2023-02-02T02:46:42;99328.69;;;21.69;30.52
51249;BME280;39642;47.556;18.728;2023-02-02T02:49:10;99334.94;;;21.68;30.68
51249;BME280;39642;47.556;18.728;2023-02-02T02:51:48;99325.19;;;21.68;30.41
51249;BME280;39642;47.556;18.728;2023-02-02T03:08:14;99318.44;;;21.64;30.29
51249;BME280;39642;47.556;18.728;2023-02-02T03:10:45;99322.84;;;21.63;30.77
51249;BME280;39642;47.556;18.728;2023-02-02T03:13:13;99323.72;;;21.64;30.34
51249;BME280;39642;47.556;18.728;2023-02-02T03:15:40;99319.38;;;21.63;30.40
51249;BME280;39642;47.556;18.728;2023-02-02T03:18:07;99320.34;;;21.62;30.34
51249;BME280;39642;47.556;18.728;2023-02-02T03:20:34;99316.72;;;21.63;30.37
51249;BME280;39642;47.556;18.728;2023-02-02T03:23:00;99331.69;;;21.64;30.30
51249;BME280;39642;47.556;18.728;2023-02-02T03:25:26;99331.69;;;21.64;30.12
51249;BME280;39642;47.556;18.728;2023-02-02T03:27:52;99332.63;;;21.63;30.27
51249;BME280;39642;47.556;18.728;2023-02-02T03:30:18;99335.16;;;21.65;30.29
51249;BME280;39642;47.556;18.728;2023-02-02T03:32:45;99327.97;;;21.67;30.05
51249;BME280;39642;47.556;18.728;2023-02-02T03:35:11;99326.16;;;21.67;30.06
51249;BME280;39642;47.556;18.728;2023-02-02T03:37:37;99327.81;;;21.68;30.09
51249;BME280;39642;47.556;18.728;2023-02-02T03:40:04;99344.59;;;21.69;30.10
51249;BME280;39642;47.556;18.728;2023-02-02T03:42:30;99353.37;;;21.69;30.18
51249;BME280;39642;47.556;18.728;2023-02-02T03:44:56;99357.84;;;21.69;30.07
51249;BME280;39642;47.556;18.728;2023-02-02T03:47:22;99349.91;;;21.69;29.95
51249;BME280;39642;47.556;18.728;2023-02-02T03:49:48;99348.19;;;21.68;30.16
51249;BME280;39642;47.556;18.728;2023-02-02T03:52:13;99357.09;;;21.67;29.97
51249;BME280;39642;47.556;18.728;2023-02-02T03:54:39;99356.28;;;21.66;30.04
51249;BME280;39642;47.556;18.728;2023-02-02T03:57:05;99349.25;;;21.65;30.03
51249;BME280;39642;47.556;18.728;2023-02-02T03:59:31;99340.38;;;21.66;30.03
51249;BME280;39642;47.556;18.728;2023-02-02T04:01:57;99348.31;;;21.66;30.33
51249;BME280;39642;47.556;18.728;2023-02-02T04:04:23;99352.75;;;21.66;30.30
51249;BME280;39642;47.556;18.728;2023-02-02T04:06:48;99339.50;;;21.66;29.99
51249;BME280;39642;47.556;18.728;2023-02-02T04:09:14;99343.22;;;21.63;30.09
51249;BME280;39642;47.556;18.728;2023-02-02T04:11:40;99350.31;;;21.62;30.08
51249;BME280;39642;47.556;18.728;2023-02-02T04:14:06;99357.31;;;21.63;30.13
51249;BME280;39642;47.556;18.728;2023-02-02T04:16:32;99352.13;;;21.62;30.20
51249;BME280;39642;47.556;18.728;2023-02-02T04:19:01;99352.00;;;21.63;30.41
51249;BME280;39642;47.556;18.728;2023-02-02T04:21:27;99351.25;;;21.61;30.16
51249;BME280;39642;47.556;18.728;2023-02-02T04:23:53;99361.97;;;21.60;30.07
51249;BME280;39642;47.556;18.728;2023-02-02T04:26:19;99362.09;;;21.58;30.26
51249;BME280;39642;47.556;18.728;2023-02-02T04:28:45;99359.44;;;21.58;29.94
51249;BME280;39642;47.556;18.728;2023-02-02T04:31:11;99358.59;;;21.58;29.99
51249;BME280;39642;47.556;18.728;2023-02-02T04:33:37;99363.06;;;21.57;30.30
51249;BME280;39642;47.556;18.728;2023-02-02T04:36:03;99361.34;;;21.56;29.96
51249;BME280;39642;47.556;18.728;2023-02-02T04:38:29;99356.88;;;21.57;30.25
51249;BME280;39642;47.556;18.728;2023-02-02T04:40:55;99352.44;;;21.57;30.21
51249;BME280;39642;47.556;18.728;2023-02-02T04:43:20;99358.81;;;21.55;29.73
51249;BME280;39642;47.556;18.728;2023-02-02T04:45:46;99364.22;;;21.53;29.97
51249;BME280;39642;47.556;18.728;2023-02-02T04:48:12;99365.06;;;21.54;29.74
51249;BME280;39642;47.556;18.728;2023-02-02T04:50:38;99379.12;;;21.54;30.19
51249;BME280;39642;47.556;18.728;2023-02-02T04:53:04;99369.28;;;21.56;29.39
51249;BME280;39642;47.556;18.728;2023-02-02T04:55:30;99377.38;;;21.55;29.65
51249;BME280;39642;47.556;18.728;2023-02-02T04:57:56;99375.56;;;21.55;29.66
51249;BME280;39642;47.556;18.728;2023-02-02T05:00:22;99364.12;;;21.55;29.58
51249;BME280;39642;47.556;18.728;2023-02-02T05:02:48;99378.19;;;21.55;29.54
51249;BME280;39642;47.556;18.728;2023-02-02T05:05:14;99387.09;;;21.54;29.57
51249;BME280;39642;47.556;18.728;2023-02-02T05:07:39;99380.09;;;21.53;29.39
51249;BME280;39642;47.556;18.728;2023-02-02T05:10:07;99383.59;;;21.54;29.42
51249;BME280;39642;47.556;18.728;2023-02-02T05:12:33;99383.59;;;21.54;29.22
51249;BME280;39642;47.556;18.728;2023-02-02T05:14:59;99388.81;;;21.55;29.17
51249;BME280;39642;47.556;18.728;2023-02-02T05:17:26;99384.44;;;21.54;29.12
51249;BME280;39642;47.556;18.728;2023-02-02T05:19:52;99398.44;;;21.56;29.09
51249;BME280;39642;47.556;18.728;2023-02-02T05:22:18;99391.31;;;21.57;28.94
51249;BME280;39642;47.556;18.728;2023-02-02T05:24:44;99399.28;;;21.57;29.11
51249;BME280;39642;47.556;18.728;2023-02-02T05:27:10;99414.31;;;21.56;29.13
51249;BME280;39642;47.556;18.728;2023-02-02T05:29:36;99416.88;;;21.58;28.72
51249;BME280;39642;47.556;18.728;2023-02-02T05:32:01;99410.75;;;21.57;28.84
51249;BME280;39642;47.556;18.728;2023-02-02T05:34:27;99407.97;;;21.59;28.80
51249;BME280;39642;47.556;18.728;2023-02-02T05:36:53;99423.84;;;21.59;28.77
51249;BME280;39642;47.556;18.728;2023-02-02T05:39:19;99420.28;;;21.60;29.19
51249;BME280;39642;47.556;18.728;2023-02-02T05:41:45;99411.47;;;21.59;29.45
51249;BME280;39642;47.556;18.728;2023-02-02T05:44:12;99403.53;;;21.59;29.69
51249;BME280;39642;47.556;18.728;2023-02-02T05:46:39;99411.34;;;21.61;29.93
51249;BME280;39642;47.556;18.728;2023-02-02T05:49:06;99406.81;;;21.63;30.11
51249;BME280;39642;47.556;18.728;2023-02-02T05:51:38;99411.34;;;21.61;30.27
51249;BME280;39642;47.556;18.728;2023-02-02T05:54:05;99402.25;;;21.65;31.60
51249;BME280;39642;47.556;18.728;2023-02-02T05:56:31;99405.63;;;21.67;31.37
51249;BME280;39642;47.556;18.728;2023-02-02T05:58:56;99406.28;;;21.71;30.74
51249;BME280;39642;47.556;18.728;2023-02-02T06:01:23;99401.94;;;21.70;30.90
51249;BME280;39642;47.556;18.728;2023-02-02T06:03:49;99388.69;;;21.70;30.76
51249;BME280;39642;47.556;18.728;2023-02-02T06:06:15;99387.00;;;21.69;30.77
51249;BME280;39642;47.556;18.728;2023-02-02T06:08:41;99386.03;;;21.70;31.08
51249;BME280;39642;47.556;18.728;2023-02-02T06:11:11;99378.81;;;21.72;31.21
51249;BME280;39642;47.556;18.728;2023-02-02T06:13:37;99370.78;;;21.73;31.04
51249;BME280;39642;47.556;18.728;2023-02-02T06:16:03;99371.62;;;21.74;30.86
51249;BME280;39642;47.556;18.728;2023-02-02T06:18:29;99364.41;;;21.76;31.76
51249;BME280;39642;47.556;18.728;2023-02-02T06:20:58;99370.53;;;21.76;31.95
51249;BME280;39642;47.556;18.728;2023-02-02T06:23:25;99365.00;;;21.79;32.22
51249;BME280;39642;47.556;18.728;2023-02-02T06:25:51;99366.81;;;21.79;32.66
51249;BME280;39642;47.556;18.728;2023-02-02T06:28:17;99366.00;;;21.78;32.23
51249;BME280;39642;47.556;18.728;2023-02-02T06:30:43;99372.12;;;21.79;33.58
51249;BME280;39642;47.556;18.728;2023-02-02T06:33:09;99362.28;;;21.81;33.75
51249;BME280;39642;47.556;18.728;2023-02-02T06:35:35;99364.09;;;21.80;32.53
51249;BME280;39642;47.556;18.728;2023-02-02T06:38:01;99360.59;;;21.80;31.96
51249;BME280;39642;47.556;18.728;2023-02-02T06:40:28;99366.09;;;21.77;31.94
51249;BME280;39642;47.556;18.728;2023-02-02T06:42:55;99371.28;;;21.78;31.74
51249;BME280;39642;47.556;18.728;2023-02-02T06:45:21;99381.88;;;21.78;32.69
51249;BME280;39642;47.556;18.728;2023-02-02T06:47:47;99381.78;;;21.80;30.69
51249;BME280;39642;47.556;18.728;2023-02-02T06:50:30;99382.31;;;21.72;31.63
51249;BME280;39642;47.556;18.728;2023-02-02T06:52:56;99380.72;;;21.70;32.32
51249;BME280;39642;47.556;18.728;2023-02-02T06:55:22;99381.69;;;21.69;31.71
51249;BME280;39642;47.556;18.728;2023-02-02T06:57:55;99380.81;;;21.68;32.14
51249;BME280;39642;47.556;18.728;2023-02-02T07:00:21;99384.22;;;21.70;32.03
51249;BME280;39642;47.556;18.728;2023-02-02T07:02:47;99392.06;;;21.72;32.49
51249;BME280;39642;47.556;18.728;2023-02-02T07:05:12;99396.72;;;21.68;30.82
51249;BME280;39642;47.556;18.728;2023-02-02T07:07:38;99407.22;;;21.70;30.60
51249;BME280;39642;47.556;18.728;2023-02-02T07:10:05;99407.97;;;21.72;29.95
51249;BME280;39642;47.556;18.728;2023-02-02T07:12:31;99412.44;;;21.71;29.75
51249;BME280;39642;47.556;18.728;2023-02-02T07:14:56;99408.81;;;21.72;30.65
51249;BME280;39642;47.556;18.728;2023-02-02T07:17:24;99398.94;;;21.74;29.90
51249;BME280;39642;47.556;18.728;2023-02-02T07:19:50;99403.19;;;21.77;29.46
51249;BME280;39642;47.556;18.728;2023-02-02T07:22:16;99413.69;;;21.78;29.28
51249;BME280;39642;47.556;18.728;2023-02-02T07:24:41;99412.84;;;21.78;30.21
51249;BME280;39642;47.556;18.728;2023-02-02T07:27:07;99404.78;;;21.79;29.32
51249;BME280;39642;47.556;18.728;2023-02-02T07:29:33;99409.13;;;21.80;29.17
51249;BME280;39642;47.556;18.728;2023-02-02T07:31:59;99423.13;;;21.82;29.18
51249;BME280;39642;47.556;18.728;2023-02-02T07:34:25;99413.38;;;21.83;29.43
51249;BME280;39642;47.556;18.728;2023-02-02T07:36:51;99420.47;;;21.82;29.42
51249;BME280;39642;47.556;18.728;2023-02-02T07:39:17;99429.03;;;21.86;29.16
51249;BME280;39642;47.556;18.728;2023-02-02T07:41:42;99426.19;;;21.89;29.96
51249;BME280;39642;47.556;18.728;2023-02-02T07:44:11;99426.81;;;21.93;30.57
51249;BME280;39642;47.556;18.728;2023-02-02T07:46:43;99429.59;;;21.91;29.32
51249;BME280;39642;47.556;18.728;2023-02-02T07:49:14;99434.91;;;21.91;29.44
51249;BME280;39642;47.556;18.728;2023-02-02T07:51:40;99432.75;;;21.96;29.33
51249;BME280;39642;47.556;18.728;2023-02-02T07:54:07;99427.69;;;21.93;29.80
51249;BME280;39642;47.556;18.728;2023-02-02T07:56:33;99431.09;;;21.95;31.92
51249;BME280;39642;47.556;18.728;2023-02-02T07:58:59;99423.50;;;22.02;31.05
51249;BME280;39642;47.556;18.728;2023-02-02T08:01:26;99430.63;;;22.01;30.98
51249;BME280;39642;47.556;18.728;2023-02-02T08:03:54;99421.84;;;22.01;30.55
51249;BME280;39642;47.556;18.728;2023-02-02T08:06:28;99408.69;;;21.99;30.75
51249;BME280;39642;47.556;18.728;2023-02-02T08:08:56;99422.81;;;22.00;31.04
51249;BME280;39642;47.556;18.728;2023-02-02T08:11:23;99428.94;;;22.00;30.19
51249;BME280;39642;47.556;18.728;2023-02-02T08:13:51;99423.75;;;21.99;29.60
51249;BME280;39642;47.556;18.728;2023-02-02T08:16:18;99423.00;;;21.97;28.98
51249;BME280;39642;47.556;18.728;2023-02-02T08:18:44;99416.00;;;21.96;28.86
51249;BME280;39642;47.556;18.728;2023-02-02T08:21:10;99429.37;;;21.94;29.73
51249;BME280;39642;47.556;18.728;2023-02-02T08:23:37;99432.13;;;21.93;29.10
51249;BME280;39642;47.556;18.728;2023-02-02T08:26:06;99429.47;;;21.93;30.11
51249;BME280;39642;47.556;18.728;2023-02-02T08:28:33;99441.88;;;21.92;30.81
51249;BME280;39642;47.556;18.728;2023-02-02T08:31:12;99432.75;;;21.96;30.54
51249;BME280;39642;47.556;18.728;2023-02-02T08:33:39;99420.56;;;21.94;29.92
51249;BME280;39642;47.556;18.728;2023-02-02T08:36:10;99429.47;;;21.93;29.37
51249;BME280;39642;47.556;18.728;2023-02-02T08:38:36;99433.19;;;21.90;29.28
51249;BME280;39642;47.556;18.728;2023-02-02T08:41:07;99410.28;;;21.89;30.74
51249;BME280;39642;47.556;18.728;2023-02-02T08:43:34;99425.12;;;21.92;29.31
51249;BME280;39642;47.556;18.728;2023-02-02T08:46:00;99418.44;;;21.99;29.62
51249;BME280;39642;47.556;18.728;2023-02-02T08:48:26;99421.41;;;21.94;29.52
51249;BME280;39642;47.556;18.728;2023-02-02T08:50:57;99421.75;;;21.90;31.88
51249;BME280;39642;47.556;18.728;2023-02-02T08:53:24;99423.41;;;21.91;30.15
51249;BME280;39642;47.556;18.728;2023-02-02T08:55:58;99429.78;;;21.88;29.69
51249;BME280;39642;47.556;18.728;2023-02-02T08:58:25;99439.03;;;21.95;31.17
51249;BME280;39642;47.556;18.728;2023-02-02T09:00:51;99436.56;;;21.92;30.67
51249;BME280;39642;47.556;18.728;2023-02-02T09:03:17;99422.37;;;21.93;31.64
51249;BME280;39642;47.556;18.728;2023-02-02T09:05:43;99423.31;;;21.92;30.08
51249;BME280;39642;47.556;18.728;2023-02-02T09:08:09;99435.22;;;21.87;30.78
51249;BME280;39642;47.556;18.728;2023-02-02T09:10:36;99440.84;;;21.82;30.63
51249;BME280;39642;47.556;18.728;2023-02-02T09:13:02;99434.66;;;21.81;31.59
51249;BME280;39642;47.556;18.728;2023-02-02T09:15:29;99428.53;;;21.81;32.21
51249;BME280;39642;47.556;18.728;2023-02-02T09:17:55;99439.97;;;21.81;31.43
51249;BME280;39642;47.556;18.728;2023-02-02T09:20:21;99442.63;;;21.81;31.76
51249;BME280;39642;47.556;18.728;2023-02-02T09:22:47;99431.91;;;21.83;32.89
51249;BME280;39642;47.556;18.728;2023-02-02T09:25:13;99443.16;;;21.87;33.94
51249;BME280;39642;47.556;18.728;2023-02-02T09:27:39;99454.63;;;21.87;33.31
51249;BME280;39642;47.556;18.728;2023-02-02T09:30:07;99451.00;;;21.88;33.81
51249;BME280;39642;47.556;18.728;2023-02-02T09:32:34;99446.56;;;21.89;33.50
51249;BME280;39642;47.556;18.728;2023-02-02T09:35:00;99447.28;;;21.91;33.31
51249;BME280;39642;47.556;18.728;2023-02-02T09:37:26;99464.06;;;21.91;32.95
51249;BME280;39642;47.556;18.728;2023-02-02T09:39:52;99463.00;;;21.94;32.94
51249;BME280;39642;47.556;18.728;2023-02-02T09:42:45;99473.59;;;21.94;32.53
51249;BME280;39642;47.556;18.728;2023-02-02T09:45:38;99469.03;;;21.96;32.67
51249;BME280;39642;47.556;18.728;2023-02-02T09:48:23;99475.50;;;22.04;32.17
51249;BME280;39642;47.556;18.728;2023-02-02T09:50:57;99468.91;;;21.97;31.44
51249;BME280;39642;47.556;18.728;2023-02-02T09:56:11;99478.25;;;21.90;30.43
51249;BME280;39642;47.556;18.728;2023-02-02T09:58:49;99464.88;;;21.79;30.15
51249;BME280;39642;47.556;18.728;2023-02-02T10:01:37;99461.38;;;21.66;29.74
51249;BME280;39642;47.556;18.728;2023-02-02T10:04:26;99473.88;;;21.63;30.88
51249;BME280;39642;47.556;18.728;2023-02-02T10:06:57;99467.75;;;21.63;29.28
51249;BME280;39642;47.556;18.728;2023-02-02T10:14:34;99475.28;;;21.69;30.64
51249;BME280;39642;47.556;18.728;2023-02-02T10:17:12;99469.75;;;21.72;29.02
51249;BME280;39642;47.556;18.728;2023-02-02T10:19:42;99468.59;;;21.76;28.44
51249;BME280;39642;47.556;18.728;2023-02-02T10:22:22;99464.78;;;21.80;30.12
51249;BME280;39642;47.556;18.728;2023-02-02T10:24:49;99463.72;;;21.83;28.77
51249;BME280;39642;47.556;18.728;2023-02-02T10:27:31;99462.66;;;21.86;29.31
51249;BME280;39642;47.556;18.728;2023-02-02T10:30:05;99469.53;;;21.88;28.91
51249;BME280;39642;47.556;18.728;2023-02-02T10:32:37;99464.16;;;21.90;30.90
51249;BME280;39642;47.556;18.728;2023-02-02T10:35:41;99491.31;;;21.93;30.52
51249;BME280;39642;47.556;18.728;2023-02-02T10:38:21;99483.22;;;21.95;28.98
51249;BME280;39642;47.556;18.728;2023-02-02T10:41:03;99483.03;;;21.98;29.86
51249;BME280;39642;47.556;18.728;2023-02-02T10:43:59;99483.03;;;21.98;29.72
51249;BME280;39642;47.556;18.728;2023-02-02T10:46:37;99485.56;;;21.99;29.27
51249;BME280;39642;47.556;18.728;2023-02-02T10:52:22;99470.94;;;21.94;29.88
51249;BME280;39642;47.556;18.728;2023-02-02T11:00:24;99501.03;;;21.67;28.64
51249;BME280;39642;47.556;18.728;2023-02-02T11:02:52;99499.22;;;21.68;28.82
51249;BME280;39642;47.556;18.728;2023-02-02T11:05:23;99501.69;;;21.71;29.24
51249;BME280;39642;47.556;18.728;2023-02-02T11:08:22;99498.72;;;21.75;29.07
51249;BME280;39642;47.556;18.728;2023-02-02T11:10:52;99487.06;;;21.78;29.09
51249;BME280;39642;47.556;18.728;2023-02-02T11:13:30;99497.53;;;21.79;29.61
51249;BME280;39642;47.556;18.728;2023-02-02T11:18:39;99499.16;;;21.82;30.39
51249;BME280;39642;47.556;18.728;2023-02-02T11:21:35;99498.94;;;21.85;29.77
51249;BME280;39642;47.556;18.728;2023-02-02T11:24:05;99508.56;;;21.86;30.47
51249;BME280;39642;47.556;18.728;2023-02-02T11:26:45;99496.94;;;21.89;30.83
51249;BME280;39642;47.556;18.728;2023-02-02T11:29:26;99503.06;;;21.89;30.62
51249;BME280;39642;47.556;18.728;2023-02-02T11:31:53;99490.66;;;21.90;31.18
51249;BME280;39642;47.556;18.728;2023-02-02T11:34:25;99487.03;;;21.91;30.82
51249;BME280;39642;47.556;18.728;2023-02-02T11:39:30;99482.47;;;21.93;31.16
51249;BME280;39642;47.556;18.728;2023-02-02T11:42:19;99485.34;;;21.90;31.77
51249;BME280;39642;47.556;18.728;2023-02-02T11:44:56;99497.78;;;21.89;32.09
51249;BME280;39642;47.556;18.728;2023-02-02T11:47:26;99481.88;;;21.89;32.72
51249;BME280;39642;47.556;18.728;2023-02-02T11:49:53;99483.88;;;21.86;31.94
51249;BME280;39642;47.556;18.728;2023-02-02T11:52:22;99482.81;;;21.88;32.54
51249;BME280;39642;47.556;18.728;2023-02-02T11:54:50;99491.63;;;21.89;31.84
51249;BME280;39642;47.556;18.728;2023-02-02T11:57:21;99502.09;;;21.90;31.27
51249;BME280;39642;47.556;18.728;2023-02-02T11:59:50;99488.09;;;21.88;31.20
51249;BME280;39642;47.556;18.728;2023-02-02T12:02:30;99487.03;;;21.91;31.04
51249;BME280;39642;47.556;18.728;2023-02-02T12:07:41;99485.59;;;21.87;30.99
51249;BME280;39642;47.556;18.728;2023-02-02T12:13:02;99483.97;;;21.84;31.49
51249;BME280;39642;47.556;18.728;2023-02-02T12:15:57;99494.69;;;21.82;30.99
51249;BME280;39642;47.556;18.728;2023-02-02T12:22:05;99492.13;;;21.81;30.09
51249;BME280;39642;47.556;18.728;2023-02-02T12:24:33;99500.19;;;21.79;30.49
51249;BME280;39642;47.556;18.728;2023-02-02T12:27:14;99498.41;;;21.80;30.22
51249;BME280;39642;47.556;18.728;2023-02-02T12:32:45;99490.44;;;21.80;30.06
51249;BME280;39642;47.556;18.728;2023-02-02T12:35:35;99503.56;;;21.81;29.90
51249;BME280;39642;47.556;18.728;2023-02-02T12:46:15;99508.16;;;21.92;32.82
51249;BME280;39642;47.556;18.728;2023-02-02T12:55:16;99501.25;;;21.90;33.30
51249;BME280;39642;47.556;18.728;2023-02-02T13:00:39;99512.69;;;21.90;31.90
51249;BME280;39642;47.556;18.728;2023-02-02T13:03:23;99521.63;;;21.89;31.71
51249;BME280;39642;47.556;18.728;2023-02-02T13:08:38;99525.44;;;21.85;31.92
51249;BME280;39642;47.556;18.728;2023-02-02T13:11:15;99530.81;;;21.83;32.17
51249;BME280;39642;47.556;18.728;2023-02-02T13:14:00;99525.53;;;21.83;35.48
51249;BME280;39642;47.556;18.728;2023-02-02T13:16:28;99531.66;;;21.84;33.65
51249;BME280;39642;47.556;18.728;2023-02-02T13:19:05;99526.59;;;21.81;33.11
51249;BME280;39642;47.556;18.728;2023-02-02T13:21:34;99538.69;;;21.85;34.06
51249;BME280;39642;47.556;18.728;2023-02-02T13:24:11;99535.94;;;21.87;33.55
51249;BME280;39642;47.556;18.728;2023-02-02T13:26:41;99543.75;;;21.88;33.32
51249;BME280;39642;47.556;18.728;2023-02-02T13:31:42;99538.47;;;21.88;31.74
51249;BME280;39642;47.556;18.728;2023-02-02T13:34:58;99543.66;;;21.90;31.27
51249;BME280;39642;47.556;18.728;2023-02-02T13:37:48;99532.22;;;21.89;30.76
51249;BME280;39642;47.556;18.728;2023-02-02T13:53:46;99535.41;;;21.94;33.47
51249;BME280;39642;47.556;18.728;2023-02-02T14:01:50;99541.66;;;21.93;33.21
51249;BME280;39642;47.556;18.728;2023-02-02T14:04:21;99537.31;;;21.92;32.94
51249;BME280;39642;47.556;18.728;2023-02-02T14:07:02;99549.72;;;21.92;32.40
51249;BME280;39642;47.556;18.728;2023-02-02T14:09:35;99546.22;;;21.91;32.83
51249;BME280;39642;47.556;18.728;2023-02-02T14:12:05;99543.75;;;21.88;32.85
51249;BME280;39642;47.556;18.728;2023-02-02T14:14:34;99557.03;;;21.88;33.34
51249;BME280;39642;47.556;18.728;2023-02-02T14:19:59;99565.09;;;21.87;34.16
51249;BME280;39642;47.556;18.728;2023-02-02T14:22:46;99560.81;;;21.84;34.51
51249;BME280;39642;47.556;18.728;2023-02-02T14:27:56;99565.28;;;21.83;35.02
51249;BME280;39642;47.556;18.728;2023-02-02T14:30:26;99562.62;;;21.83;36.50
51249;BME280;39642;47.556;18.728;2023-02-02T14:32:52;99571.44;;;21.84;34.82
51249;BME280;39642;47.556;18.728;2023-02-02T14:38:11;99566.34;;;21.81;34.06
51249;BME280;39642;47.556;18.728;2023-02-02T14:41:13;99567.31;;;21.80;34.19
51249;BME280;39642;47.556;18.728;2023-02-02T14:44:03;99568.91;;;21.82;33.75
51249;BME280;39642;47.556;18.728;2023-02-02T14:46:35;99556.59;;;21.81;33.50
51249;BME280;39642;47.556;18.728;2023-02-02T14:51:30;99562.53;;;21.85;33.08
51249;BME280;39642;47.556;18.728;2023-02-02T14:54:06;99570.50;;;21.85;32.38
51249;BME280;39642;47.556;18.728;2023-02-02T14:56:45;99564.97;;;21.88;32.41
51249;BME280;39642;47.556;18.728;2023-02-02T15:02:12;99575.91;;;21.96;32.86